Huvudsida
METAR-TAF:

METAR-TAF

Flygplatser :

Paros flygplats

Thimphu, Indien

latitud: 27-24-32N, longitud: 89-25-14E, höjd: 2235 m

Aktuellt väderrapport

Denna rapport gjordes för 47 minuter sedan, klockan 11:00 UTC
Vind 8 kt varierande vindriktning i byarna ända upp till 18 kt
Temperatur 13°C
Fuktighet 54%
Tryck 1018 hPa
Sikt: 6000 m
Spridda moln på en höjd av 4000 ft
Mulet på en höjd av 7000 ft
lätt regn,

METAR: VQPR 241100Z VRB08G18KT 6000 -RA SCT040 OVC070 13/04 Q1018

Tid: 17:47 (11:47 UTC)


TAF: saknas

Aktuella väderrapporter och prognoser från 4000 flygplatser (METAR- och TAF-rapporter).

De tillgängliga stationerna syns som gula och röda prickar på kartan.

För musen över prickarna för att se namnen på stationerna.

Klicka sedan för att få väderrapporter och prognoser.

För att ändra kartan: Klicka på de gröna knapparna med ett svart kors på för att zooma in; den gröna knappen med ett streck på för att zooma ut; eller på de gröna pilarna för angränsande kartor.


METAR-TAF: